sensor_id;sensor_type;location;lat;lon;timestamp;P1;durP1;ratioP1;P2;durP2;ratioP2
48207;SDS011;33997;53.278;9.708;2023-06-22T00:01:48;7.43;;;4.88;;
48207;SDS011;33997;53.278;9.708;2023-06-22T00:04:14;8.43;;;5.45;;
48207;SDS011;33997;53.278;9.708;2023-06-22T00:06:40;7.78;;;5.45;;
48207;SDS011;33997;53.278;9.708;2023-06-22T00:09:05;8.93;;;5.72;;
48207;SDS011;33997;53.278;9.708;2023-06-22T00:11:32;9.13;;;5.60;;
48207;SDS011;33997;53.278;9.708;2023-06-22T00:13:58;10.82;;;5.10;;
48207;SDS011;33997;53.278;9.708;2023-06-22T00:16:24;10.13;;;4.80;;
48207;SDS011;33997;53.278;9.708;2023-06-22T00:18:50;8.07;;;4.68;;
48207;SDS011;33997;53.278;9.708;2023-06-22T00:21:15;6.70;;;4.95;;
48207;SDS011;33997;53.278;9.708;2023-06-22T00:23:41;11.23;;;4.80;;
48207;SDS011;33997;53.278;9.708;2023-06-22T00:26:08;9.10;;;6.05;;
48207;SDS011;33997;53.278;9.708;2023-06-22T00:28:33;9.07;;;6.13;;
48207;SDS011;33997;53.278;9.708;2023-06-22T00:30:59;9.10;;;5.93;;
48207;SDS011;33997;53.278;9.708;2023-06-22T00:33:25;8.52;;;5.80;;
48207;SDS011;33997;53.278;9.708;2023-06-22T00:35:51;8.93;;;5.82;;
48207;SDS011;33997;53.278;9.708;2023-06-22T00:38:18;11.27;;;6.25;;
48207;SDS011;33997;53.278;9.708;2023-06-22T00:40:44;8.30;;;6.00;;
48207;SDS011;33997;53.278;9.708;2023-06-22T00:43:09;11.38;;;7.18;;
48207;SDS011;33997;53.278;9.708;2023-06-22T00:45:35;9.43;;;6.65;;
48207;SDS011;33997;53.278;9.708;2023-06-22T00:48:01;10.02;;;7.07;;
48207;SDS011;33997;53.278;9.708;2023-06-22T00:50:28;9.07;;;6.40;;
48207;SDS011;33997;53.278;9.708;2023-06-22T00:52:58;10.93;;;7.05;;
48207;SDS011;33997;53.278;9.708;2023-06-22T00:55:26;10.25;;;6.78;;
48207;SDS011;33997;53.278;9.708;2023-06-22T00:57:52;10.77;;;6.88;;
48207;SDS011;33997;53.278;9.708;2023-06-22T01:00:22;10.80;;;7.53;;
48207;SDS011;33997;53.278;9.708;2023-06-22T01:02:50;9.68;;;7.15;;
48207;SDS011;33997;53.278;9.708;2023-06-22T01:05:18;11.73;;;7.65;;
48207;SDS011;33997;53.278;9.708;2023-06-22T01:07:55;11.27;;;7.60;;
48207;SDS011;33997;53.278;9.708;2023-06-22T01:10:34;9.75;;;7.05;;
48207;SDS011;33997;53.278;9.708;2023-06-22T01:13:11;9.57;;;6.57;;
48207;SDS011;33997;53.278;9.708;2023-06-22T01:15:47;9.90;;;7.00;;
48207;SDS011;33997;53.278;9.708;2023-06-22T01:18:18;11.43;;;6.75;;
48207;SDS011;33997;53.278;9.708;2023-06-22T01:20:46;8.63;;;6.78;;
48207;SDS011;33997;53.278;9.708;2023-06-22T01:26:25;10.05;;;7.47;;
48207;SDS011;33997;53.278;9.708;2023-06-22T01:29:01;11.80;;;8.18;;
48207;SDS011;33997;53.278;9.708;2023-06-22T01:31:29;9.25;;;7.40;;
48207;SDS011;33997;53.278;9.708;2023-06-22T01:33:58;11.75;;;8.00;;
48207;SDS011;33997;53.278;9.708;2023-06-22T01:36:26;10.75;;;7.68;;
48207;SDS011;33997;53.278;9.708;2023-06-22T01:38:52;12.90;;;8.45;;
48207;SDS011;33997;53.278;9.708;2023-06-22T01:41:19;12.82;;;7.97;;
48207;SDS011;33997;53.278;9.708;2023-06-22T01:43:45;11.07;;;8.02;;
48207;SDS011;33997;53.278;9.708;2023-06-22T01:46:11;9.93;;;8.43;;
48207;SDS011;33997;53.278;9.708;2023-06-22T01:48:38;10.95;;;7.50;;
48207;SDS011;33997;53.278;9.708;2023-06-22T01:51:04;12.10;;;8.60;;
48207;SDS011;33997;53.278;9.708;2023-06-22T01:53:29;12.27;;;8.27;;
48207;SDS011;33997;53.278;9.708;2023-06-22T01:55:55;8.57;;;7.20;;
48207;SDS011;33997;53.278;9.708;2023-06-22T01:58:23;12.27;;;7.95;;
48207;SDS011;33997;53.278;9.708;2023-06-22T02:00:53;9.80;;;7.22;;
48207;SDS011;33997;53.278;9.708;2023-06-22T02:03:33;13.30;;;8.43;;
48207;SDS011;33997;53.278;9.708;2023-06-22T02:06:03;11.02;;;7.82;;
48207;SDS011;33997;53.278;9.708;2023-06-22T02:08:33;11.85;;;8.75;;
48207;SDS011;33997;53.278;9.708;2023-06-22T02:11:06;14.50;;;8.20;;
48207;SDS011;33997;53.278;9.708;2023-06-22T02:13:35;11.60;;;7.70;;
48207;SDS011;33997;53.278;9.708;2023-06-22T02:16:02;11.38;;;7.70;;
48207;SDS011;33997;53.278;9.708;2023-06-22T02:18:28;11.02;;;7.63;;
48207;SDS011;33997;53.278;9.708;2023-06-22T02:20:53;11.82;;;8.85;;
48207;SDS011;33997;53.278;9.708;2023-06-22T02:23:19;10.95;;;7.93;;
48207;SDS011;33997;53.278;9.708;2023-06-22T02:25:44;11.98;;;8.43;;
48207;SDS011;33997;53.278;9.708;2023-06-22T02:28:10;11.93;;;8.68;;
48207;SDS011;33997;53.278;9.708;2023-06-22T02:30:35;11.65;;;8.57;;
48207;SDS011;33997;53.278;9.708;2023-06-22T02:33:01;10.18;;;7.57;;
48207;SDS011;33997;53.278;9.708;2023-06-22T02:35:27;11.32;;;8.57;;
48207;SDS011;33997;53.278;9.708;2023-06-22T02:37:56;11.57;;;8.30;;
48207;SDS011;33997;53.278;9.708;2023-06-22T02:40:22;10.63;;;8.40;;
48207;SDS011;33997;53.278;9.708;2023-06-22T02:42:48;14.73;;;8.40;;
48207;SDS011;33997;53.278;9.708;2023-06-22T02:45:13;11.30;;;8.00;;
48207;SDS011;33997;53.278;9.708;2023-06-22T02:47:39;11.30;;;7.95;;
48207;SDS011;33997;53.278;9.708;2023-06-22T02:50:04;11.27;;;7.50;;
48207;SDS011;33997;53.278;9.708;2023-06-22T02:52:30;12.00;;;8.30;;
48207;SDS011;33997;53.278;9.708;2023-06-22T02:54:56;9.65;;;7.53;;
48207;SDS011;33997;53.278;9.708;2023-06-22T02:57:21;10.95;;;7.47;;
48207;SDS011;33997;53.278;9.708;2023-06-22T02:59:47;10.20;;;7.47;;
48207;SDS011;33997;53.278;9.708;2023-06-22T03:02:12;9.70;;;6.82;;
48207;SDS011;33997;53.278;9.708;2023-06-22T03:04:38;10.30;;;7.60;;
48207;SDS011;33997;53.278;9.708;2023-06-22T03:07:03;12.23;;;6.90;;
48207;SDS011;33997;53.278;9.708;2023-06-22T03:09:29;11.85;;;7.40;;
48207;SDS011;33997;53.278;9.708;2023-06-22T03:11:55;11.20;;;7.15;;
48207;SDS011;33997;53.278;9.708;2023-06-22T03:14:20;9.98;;;7.40;;
48207;SDS011;33997;53.278;9.708;2023-06-22T03:16:46;11.82;;;7.50;;
48207;SDS011;33997;53.278;9.708;2023-06-22T03:19:11;15.10;;;8.25;;
48207;SDS011;33997;53.278;9.708;2023-06-22T03:21:38;10.40;;;7.63;;
48207;SDS011;33997;53.278;9.708;2023-06-22T03:24:04;10.93;;;8.70;;
48207;SDS011;33997;53.278;9.708;2023-06-22T03:26:30;10.25;;;7.63;;
48207;SDS011;33997;53.278;9.708;2023-06-22T03:28:55;11.65;;;7.60;;
48207;SDS011;33997;53.278;9.708;2023-06-22T03:31:21;10.20;;;7.28;;
48207;SDS011;33997;53.278;9.708;2023-06-22T03:33:48;10.10;;;7.32;;
48207;SDS011;33997;53.278;9.708;2023-06-22T03:36:14;11.90;;;7.53;;
48207;SDS011;33997;53.278;9.708;2023-06-22T03:38:48;10.55;;;7.18;;
48207;SDS011;33997;53.278;9.708;2023-06-22T03:41:14;10.13;;;7.28;;
48207;SDS011;33997;53.278;9.708;2023-06-22T03:43:40;12.05;;;7.60;;
48207;SDS011;33997;53.278;9.708;2023-06-22T03:46:05;9.02;;;7.00;;
48207;SDS011;33997;53.278;9.708;2023-06-22T03:48:31;12.30;;;7.63;;
48207;SDS011;33997;53.278;9.708;2023-06-22T03:50:56;9.75;;;6.43;;
48207;SDS011;33997;53.278;9.708;2023-06-22T03:53:23;8.65;;;6.75;;
48207;SDS011;33997;53.278;9.708;2023-06-22T03:55:50;12.93;;;7.45;;
48207;SDS011;33997;53.278;9.708;2023-06-22T03:58:17;11.05;;;7.45;;
48207;SDS011;33997;53.278;9.708;2023-06-22T04:00:44;10.77;;;7.38;;
48207;SDS011;33997;53.278;9.708;2023-06-22T04:03:13;10.95;;;7.25;;
48207;SDS011;33997;53.278;9.708;2023-06-22T04:05:39;11.95;;;7.70;;
48207;SDS011;33997;53.278;9.708;2023-06-22T04:08:05;12.00;;;8.05;;
48207;SDS011;33997;53.278;9.708;2023-06-22T04:10:31;10.93;;;7.40;;
48207;SDS011;33997;53.278;9.708;2023-06-22T04:12:56;11.15;;;6.88;;
48207;SDS011;33997;53.278;9.708;2023-06-22T04:15:22;13.60;;;7.47;;
48207;SDS011;33997;53.278;9.708;2023-06-22T04:17:47;12.07;;;6.75;;
48207;SDS011;33997;53.278;9.708;2023-06-22T04:20:13;11.00;;;7.55;;
48207;SDS011;33997;53.278;9.708;2023-06-22T04:22:38;10.57;;;7.85;;
48207;SDS011;33997;53.278;9.708;2023-06-22T04:25:05;10.98;;;7.38;;
48207;SDS011;33997;53.278;9.708;2023-06-22T04:27:32;10.75;;;7.43;;
48207;SDS011;33997;53.278;9.708;2023-06-22T04:30:02;13.65;;;7.65;;
48207;SDS011;33997;53.278;9.708;2023-06-22T04:32:28;11.05;;;7.25;;
48207;SDS011;33997;53.278;9.708;2023-06-22T04:34:53;10.38;;;6.95;;
48207;SDS011;33997;53.278;9.708;2023-06-22T04:37:19;12.52;;;7.47;;
48207;SDS011;33997;53.278;9.708;2023-06-22T04:39:48;11.85;;;7.20;;
48207;SDS011;33997;53.278;9.708;2023-06-22T04:42:14;14.23;;;7.00;;
48207;SDS011;33997;53.278;9.708;2023-06-22T04:44:39;9.07;;;6.50;;
48207;SDS011;33997;53.278;9.708;2023-06-22T04:47:06;12.15;;;7.10;;
48207;SDS011;33997;53.278;9.708;2023-06-22T04:49:33;10.98;;;6.65;;
48207;SDS011;33997;53.278;9.708;2023-06-22T04:52:01;10.00;;;7.45;;
48207;SDS011;33997;53.278;9.708;2023-06-22T04:54:28;8.95;;;6.82;;
48207;SDS011;33997;53.278;9.708;2023-06-22T04:56:54;11.00;;;6.93;;
48207;SDS011;33997;53.278;9.708;2023-06-22T04:59:26;12.20;;;6.28;;
48207;SDS011;33997;53.278;9.708;2023-06-22T05:01:55;10.45;;;7.07;;
48207;SDS011;33997;53.278;9.708;2023-06-22T05:04:26;10.60;;;6.55;;
48207;SDS011;33997;53.278;9.708;2023-06-22T05:06:53;9.57;;;6.55;;
48207;SDS011;33997;53.278;9.708;2023-06-22T05:09:19;9.80;;;7.30;;
48207;SDS011;33997;53.278;9.708;2023-06-22T05:11:45;9.48;;;6.40;;
48207;SDS011;33997;53.278;9.708;2023-06-22T05:14:11;11.98;;;5.90;;
48207;SDS011;33997;53.278;9.708;2023-06-22T05:16:37;9.45;;;5.82;;
48207;SDS011;33997;53.278;9.708;2023-06-22T05:19:03;9.52;;;6.22;;
48207;SDS011;33997;53.278;9.708;2023-06-22T05:21:29;11.40;;;6.60;;
48207;SDS011;33997;53.278;9.708;2023-06-22T05:23:55;10.23;;;6.00;;
48207;SDS011;33997;53.278;9.708;2023-06-22T05:26:25;12.20;;;5.78;;
48207;SDS011;33997;53.278;9.708;2023-06-22T05:28:52;8.13;;;5.93;;
48207;SDS011;33997;53.278;9.708;2023-06-22T05:31:18;9.45;;;6.10;;
48207;SDS011;33997;53.278;9.708;2023-06-22T05:33:47;17.92;;;5.70;;
48207;SDS011;33997;53.278;9.708;2023-06-22T05:36:14;8.63;;;4.95;;
48207;SDS011;33997;53.278;9.708;2023-06-22T05:38:39;10.00;;;5.00;;
48207;SDS011;33997;53.278;9.708;2023-06-22T05:41:06;7.38;;;4.88;;
48207;SDS011;33997;53.278;9.708;2023-06-22T05:43:31;10.68;;;6.07;;
48207;SDS011;33997;53.278;9.708;2023-06-22T05:45:57;8.07;;;5.20;;
48207;SDS011;33997;53.278;9.708;2023-06-22T05:48:26;8.60;;;5.20;;
48207;SDS011;33997;53.278;9.708;2023-06-22T05:50:52;12.48;;;5.43;;
48207;SDS011;33997;53.278;9.708;2023-06-22T05:53:18;9.15;;;4.82;;
48207;SDS011;33997;53.278;9.708;2023-06-22T05:55:44;9.07;;;4.57;;
48207;SDS011;33997;53.278;9.708;2023-06-22T05:58:09;12.63;;;4.75;;
48207;SDS011;33997;53.278;9.708;2023-06-22T06:00:35;7.68;;;4.43;;
48207;SDS011;33997;53.278;9.708;2023-06-22T06:03:01;8.73;;;4.88;;
48207;SDS011;33997;53.278;9.708;2023-06-22T06:05:29;7.00;;;4.50;;
48207;SDS011;33997;53.278;9.708;2023-06-22T06:07:56;11.95;;;4.70;;
48207;SDS011;33997;53.278;9.708;2023-06-22T06:10:22;8.10;;;3.97;;
48207;SDS011;33997;53.278;9.708;2023-06-22T06:12:47;10.00;;;4.13;;
48207;SDS011;33997;53.278;9.708;2023-06-22T06:15:13;7.57;;;4.07;;
48207;SDS011;33997;53.278;9.708;2023-06-22T06:17:48;7.32;;;4.25;;
48207;SDS011;33997;53.278;9.708;2023-06-22T06:20:14;7.75;;;3.60;;
48207;SDS011;33997;53.278;9.708;2023-06-22T06:22:41;6.88;;;3.83;;
48207;SDS011;33997;53.278;9.708;2023-06-22T06:25:07;9.48;;;3.85;;
48207;SDS011;33997;53.278;9.708;2023-06-22T06:27:33;8.48;;;4.05;;
48207;SDS011;33997;53.278;9.708;2023-06-22T06:29:59;6.13;;;3.42;;
48207;SDS011;33997;53.278;9.708;2023-06-22T06:32:24;5.95;;;3.53;;
48207;SDS011;33997;53.278;9.708;2023-06-22T06:34:50;7.63;;;3.45;;
48207;SDS011;33997;53.278;9.708;2023-06-22T06:37:16;8.38;;;3.20;;
48207;SDS011;33997;53.278;9.708;2023-06-22T06:39:42;8.02;;;3.17;;
48207;SDS011;33997;53.278;9.708;2023-06-22T06:42:07;3.92;;;2.80;;
48207;SDS011;33997;53.278;9.708;2023-06-22T06:44:33;4.22;;;2.65;;
48207;SDS011;33997;53.278;9.708;2023-06-22T06:46:58;5.18;;;2.78;;
48207;SDS011;33997;53.278;9.708;2023-06-22T06:49:24;5.75;;;2.75;;
48207;SDS011;33997;53.278;9.708;2023-06-22T06:51:50;5.63;;;3.13;;
48207;SDS011;33997;53.278;9.708;2023-06-22T06:54:15;7.60;;;2.97;;
48207;SDS011;33997;53.278;9.708;2023-06-22T06:56:41;4.38;;;2.60;;
48207;SDS011;33997;53.278;9.708;2023-06-22T06:59:09;3.53;;;2.17;;
48207;SDS011;33997;53.278;9.708;2023-06-22T07:01:35;4.72;;;2.60;;
48207;SDS011;33997;53.278;9.708;2023-06-22T07:04:00;4.95;;;2.00;;
48207;SDS011;33997;53.278;9.708;2023-06-22T07:06:26;3.05;;;2.05;;
48207;SDS011;33997;53.278;9.708;2023-06-22T07:08:54;4.43;;;2.20;;
48207;SDS011;33997;53.278;9.708;2023-06-22T07:11:20;4.72;;;2.38;;
48207;SDS011;33997;53.278;9.708;2023-06-22T07:13:46;4.05;;;2.25;;
48207;SDS011;33997;53.278;9.708;2023-06-22T07:16:11;3.97;;;2.10;;
48207;SDS011;33997;53.278;9.708;2023-06-22T07:18:36;4.00;;;2.17;;
48207;SDS011;33997;53.278;9.708;2023-06-22T07:21:04;4.90;;;2.05;;
48207;SDS011;33997;53.278;9.708;2023-06-22T07:23:31;3.25;;;2.10;;
48207;SDS011;33997;53.278;9.708;2023-06-22T07:25:57;10.80;;;2.30;;
48207;SDS011;33997;53.278;9.708;2023-06-22T07:28:22;3.15;;;1.88;;
48207;SDS011;33997;53.278;9.708;2023-06-22T07:30:48;4.50;;;2.40;;
48207;SDS011;33997;53.278;9.708;2023-06-22T07:33:13;5.00;;;2.60;;
48207;SDS011;33997;53.278;9.708;2023-06-22T07:35:39;3.83;;;2.17;;
48207;SDS011;33997;53.278;9.708;2023-06-22T07:38:04;6.97;;;2.55;;
48207;SDS011;33997;53.278;9.708;2023-06-22T07:40:30;6.00;;;2.20;;
48207;SDS011;33997;53.278;9.708;2023-06-22T07:42:55;5.13;;;2.63;;
48207;SDS011;33997;53.278;9.708;2023-06-22T07:45:21;4.05;;;2.22;;
48207;SDS011;33997;53.278;9.708;2023-06-22T07:47:46;7.20;;;2.47;;
48207;SDS011;33997;53.278;9.708;2023-06-22T07:50:12;5.93;;;2.50;;
48207;SDS011;33997;53.278;9.708;2023-06-22T07:52:37;4.40;;;2.50;;
48207;SDS011;33997;53.278;9.708;2023-06-22T07:55:03;6.03;;;2.58;;
48207;SDS011;33997;53.278;9.708;2023-06-22T07:57:29;4.50;;;2.33;;
48207;SDS011;33997;53.278;9.708;2023-06-22T07:59:59;4.63;;;2.25;;
48207;SDS011;33997;53.278;9.708;2023-06-22T08:02:25;5.13;;;2.35;;
48207;SDS011;33997;53.278;9.708;2023-06-22T08:04:51;4.25;;;2.28;;
48207;SDS011;33997;53.278;9.708;2023-06-22T08:07:16;5.85;;;2.35;;
48207;SDS011;33997;53.278;9.708;2023-06-22T08:09:46;7.40;;;2.10;;
48207;SDS011;33997;53.278;9.708;2023-06-22T08:12:13;3.05;;;1.90;;
48207;SDS011;33997;53.278;9.708;2023-06-22T08:14:41;3.40;;;1.98;;
48207;SDS011;33997;53.278;9.708;2023-06-22T08:17:08;4.35;;;2.03;;
48207;SDS011;33997;53.278;9.708;2023-06-22T08:19:33;4.68;;;2.63;;
48207;SDS011;33997;53.278;9.708;2023-06-22T08:21:59;3.97;;;2.40;;
48207;SDS011;33997;53.278;9.708;2023-06-22T08:24:24;3.92;;;2.50;;
48207;SDS011;33997;53.278;9.708;2023-06-22T08:26:51;4.75;;;1.90;;
48207;SDS011;33997;53.278;9.708;2023-06-22T08:29:17;5.50;;;2.53;;
48207;SDS011;33997;53.278;9.708;2023-06-22T08:31:42;6.57;;;2.33;;
48207;SDS011;33997;53.278;9.708;2023-06-22T08:34:08;13.27;;;2.63;;
48207;SDS011;33997;53.278;9.708;2023-06-22T08:36:33;4.95;;;2.33;;
48207;SDS011;33997;53.278;9.708;2023-06-22T08:39:02;3.85;;;2.10;;
48207;SDS011;33997;53.278;9.708;2023-06-22T08:41:28;4.15;;;2.20;;
48207;SDS011;33997;53.278;9.708;2023-06-22T08:43:54;6.05;;;2.38;;
48207;SDS011;33997;53.278;9.708;2023-06-22T08:46:20;3.85;;;1.95;;
48207;SDS011;33997;53.278;9.708;2023-06-22T08:48:48;5.05;;;2.10;;
48207;SDS011;33997;53.278;9.708;2023-06-22T08:51:14;4.18;;;2.15;;
48207;SDS011;33997;53.278;9.708;2023-06-22T08:53:39;5.20;;;2.20;;
48207;SDS011;33997;53.278;9.708;2023-06-22T08:56:05;3.97;;;2.20;;
48207;SDS011;33997;53.278;9.708;2023-06-22T08:58:30;3.80;;;2.13;;
48207;SDS011;33997;53.278;9.708;2023-06-22T09:00:56;4.10;;;2.25;;
48207;SDS011;33997;53.278;9.708;2023-06-22T09:03:21;4.28;;;2.30;;
48207;SDS011;33997;53.278;9.708;2023-06-22T09:05:51;5.00;;;2.10;;
48207;SDS011;33997;53.278;9.708;2023-06-22T09:08:16;4.50;;;2.67;;
48207;SDS011;33997;53.278;9.708;2023-06-22T09:10:42;3.90;;;2.35;;
48207;SDS011;33997;53.278;9.708;2023-06-22T09:13:07;7.70;;;2.72;;
48207;SDS011;33997;53.278;9.708;2023-06-22T09:15:33;6.60;;;2.40;;
48207;SDS011;33997;53.278;9.708;2023-06-22T09:17:59;6.53;;;2.10;;
48207;SDS011;33997;53.278;9.708;2023-06-22T09:20:25;4.55;;;2.72;;
48207;SDS011;33997;53.278;9.708;2023-06-22T09:22:50;5.85;;;2.50;;
48207;SDS011;33997;53.278;9.708;2023-06-22T09:25:16;5.10;;;2.13;;
48207;SDS011;33997;53.278;9.708;2023-06-22T09:27:41;5.38;;;2.53;;
48207;SDS011;33997;53.278;9.708;2023-06-22T09:30:07;5.85;;;2.40;;
48207;SDS011;33997;53.278;9.708;2023-06-22T09:32:33;3.78;;;2.53;;
48207;SDS011;33997;53.278;9.708;2023-06-22T09:34:59;6.55;;;2.60;;
48207;SDS011;33997;53.278;9.708;2023-06-22T09:37:27;7.20;;;2.60;;
48207;SDS011;33997;53.278;9.708;2023-06-22T09:39:52;6.90;;;2.90;;
48207;SDS011;33997;53.278;9.708;2023-06-22T09:42:18;4.47;;;2.40;;
48207;SDS011;33997;53.278;9.708;2023-06-22T09:44:43;4.32;;;2.67;;
48207;SDS011;33997;53.278;9.708;2023-06-22T09:47:08;5.07;;;3.17;;
48207;SDS011;33997;53.278;9.708;2023-06-22T09:49:34;4.35;;;2.30;;
48207;SDS011;33997;53.278;9.708;2023-06-22T09:51:59;6.43;;;2.92;;
48207;SDS011;33997;53.278;9.708;2023-06-22T09:54:25;5.63;;;2.90;;
48207;SDS011;33997;53.278;9.708;2023-06-22T09:56:51;6.40;;;3.33;;
48207;SDS011;33997;53.278;9.708;2023-06-22T09:59:16;3.28;;;2.17;;
48207;SDS011;33997;53.278;9.708;2023-06-22T10:01:42;5.90;;;2.78;;
48207;SDS011;33997;53.278;9.708;2023-06-22T10:04:07;4.97;;;3.10;;
48207;SDS011;33997;53.278;9.708;2023-06-22T10:06:32;6.18;;;2.92;;
48207;SDS011;33997;53.278;9.708;2023-06-22T10:08:58;7.35;;;3.08;;
48207;SDS011;33997;53.278;9.708;2023-06-22T10:11:23;5.53;;;2.70;;
48207;SDS011;33997;53.278;9.708;2023-06-22T10:13:54;3.25;;;2.40;;
48207;SDS011;33997;53.278;9.708;2023-06-22T10:16:19;5.03;;;2.92;;
48207;SDS011;33997;53.278;9.708;2023-06-22T10:18:45;4.65;;;2.83;;
48207;SDS011;33997;53.278;9.708;2023-06-22T10:21:10;5.57;;;3.20;;
48207;SDS011;33997;53.278;9.708;2023-06-22T10:23:36;5.00;;;2.53;;
48207;SDS011;33997;53.278;9.708;2023-06-22T10:26:01;6.25;;;3.08;;
48207;SDS011;33997;53.278;9.708;2023-06-22T10:28:27;7.60;;;3.13;;
48207;SDS011;33997;53.278;9.708;2023-06-22T10:30:52;4.45;;;3.00;;
48207;SDS011;33997;53.278;9.708;2023-06-22T10:33:18;3.70;;;2.70;;
48207;SDS011;33997;53.278;9.708;2023-06-22T10:35:43;5.35;;;3.03;;
48207;SDS011;33997;53.278;9.708;2023-06-22T10:38:09;6.63;;;3.25;;
48207;SDS011;33997;53.278;9.708;2023-06-22T10:40:34;6.35;;;2.75;;
48207;SDS011;33997;53.278;9.708;2023-06-22T10:43:00;6.55;;;2.85;;
48207;SDS011;33997;53.278;9.708;2023-06-22T10:45:25;8.52;;;2.70;;
48207;SDS011;33997;53.278;9.708;2023-06-22T10:47:52;4.72;;;2.88;;
48207;SDS011;33997;53.278;9.708;2023-06-22T10:50:17;6.10;;;2.90;;
48207;SDS011;33997;53.278;9.708;2023-06-22T10:52:43;6.97;;;2.90;;
48207;SDS011;33997;53.278;9.708;2023-06-22T10:55:09;6.40;;;2.58;;
48207;SDS011;33997;53.278;9.708;2023-06-22T10:57:35;6.30;;;2.88;;
48207;SDS011;33997;53.278;9.708;2023-06-22T11:00:01;3.38;;;2.20;;
48207;SDS011;33997;53.278;9.708;2023-06-22T11:02:30;5.07;;;2.65;;
48207;SDS011;33997;53.278;9.708;2023-06-22T11:04:55;4.85;;;2.92;;
48207;SDS011;33997;53.278;9.708;2023-06-22T11:07:21;4.25;;;2.65;;
48207;SDS011;33997;53.278;9.708;2023-06-22T11:09:46;6.85;;;2.83;;
48207;SDS011;33997;53.278;9.708;2023-06-22T11:12:12;4.82;;;2.80;;
48207;SDS011;33997;53.278;9.708;2023-06-22T11:14:38;5.32;;;2.97;;
48207;SDS011;33997;53.278;9.708;2023-06-22T11:17:04;5.22;;;2.67;;
48207;SDS011;33997;53.278;9.708;2023-06-22T11:19:30;10.13;;;3.03;;
48207;SDS011;33997;53.278;9.708;2023-06-22T11:21:55;6.22;;;2.95;;
48207;SDS011;33997;53.278;9.708;2023-06-22T11:24:21;5.95;;;3.03;;
48207;SDS011;33997;53.278;9.708;2023-06-22T11:26:46;4.05;;;2.75;;
48207;SDS011;33997;53.278;9.708;2023-06-22T11:29:12;7.95;;;2.67;;
48207;SDS011;33997;53.278;9.708;2023-06-22T11:31:37;5.68;;;2.40;;
48207;SDS011;33997;53.278;9.708;2023-06-22T11:34:03;3.45;;;2.30;;
48207;SDS011;33997;53.278;9.708;2023-06-22T11:36:29;5.18;;;2.55;;
48207;SDS011;33997;53.278;9.708;2023-06-22T11:38:57;5.88;;;2.67;;
48207;SDS011;33997;53.278;9.708;2023-06-22T11:41:23;5.63;;;2.70;;
48207;SDS011;33997;53.278;9.708;2023-06-22T11:43:49;3.42;;;2.65;;
48207;SDS011;33997;53.278;9.708;2023-06-22T11:46:14;4.10;;;2.75;;
48207;SDS011;33997;53.278;9.708;2023-06-22T11:48:39;6.80;;;2.60;;
48207;SDS011;33997;53.278;9.708;2023-06-22T11:51:05;6.88;;;3.17;;
48207;SDS011;33997;53.278;9.708;2023-06-22T11:53:31;8.40;;;2.83;;
48207;SDS011;33997;53.278;9.708;2023-06-22T11:55:56;5.10;;;3.33;;
48207;SDS011;33997;53.278;9.708;2023-06-22T11:58:22;4.35;;;3.00;;
48207;SDS011;33997;53.278;9.708;2023-06-22T12:00:48;5.20;;;2.67;;
48207;SDS011;33997;53.278;9.708;2023-06-22T12:03:14;5.10;;;3.20;;
48207;SDS011;33997;53.278;9.708;2023-06-22T12:05:42;3.83;;;2.80;;
48207;SDS011;33997;53.278;9.708;2023-06-22T12:08:08;4.35;;;3.13;;
48207;SDS011;33997;53.278;9.708;2023-06-22T12:10:33;6.28;;;3.10;;
48207;SDS011;33997;53.278;9.708;2023-06-22T12:12:59;5.10;;;3.20;;
48207;SDS011;33997;53.278;9.708;2023-06-22T12:15:25;6.03;;;3.63;;
48207;SDS011;33997;53.278;9.708;2023-06-22T12:17:51;4.28;;;3.00;;
48207;SDS011;33997;53.278;9.708;2023-06-22T12:20:17;5.25;;;3.63;;
48207;SDS011;33997;53.278;9.708;2023-06-22T12:22:43;4.35;;;3.55;;
48207;SDS011;33997;53.278;9.708;2023-06-22T12:25:08;6.28;;;3.42;;
48207;SDS011;33997;53.278;9.708;2023-06-22T12:27:34;6.88;;;3.40;;
48207;SDS011;33997;53.278;9.708;2023-06-22T12:30:00;5.05;;;3.38;;
48207;SDS011;33997;53.278;9.708;2023-06-22T12:32:26;5.20;;;3.47;;
48207;SDS011;33997;53.278;9.708;2023-06-22T12:34:52;5.43;;;3.55;;
48207;SDS011;33997;53.278;9.708;2023-06-22T12:37:17;5.00;;;3.60;;
48207;SDS011;33997;53.278;9.708;2023-06-22T12:39:43;5.57;;;3.15;;
48207;SDS011;33997;53.278;9.708;2023-06-22T12:42:09;6.85;;;3.72;;
48207;SDS011;33997;53.278;9.708;2023-06-22T12:44:37;6.13;;;3.75;;
48207;SDS011;33997;53.278;9.708;2023-06-22T12:47:03;6.18;;;3.50;;
48207;SDS011;33997;53.278;9.708;2023-06-22T12:49:29;5.32;;;3.42;;
48207;SDS011;33997;53.278;9.708;2023-06-22T12:51:55;5.85;;;3.10;;
48207;SDS011;33997;53.278;9.708;2023-06-22T12:54:20;6.63;;;3.67;;
48207;SDS011;33997;53.278;9.708;2023-06-22T12:56:46;4.78;;;3.75;;
48207;SDS011;33997;53.278;9.708;2023-06-22T12:59:12;9.05;;;3.75;;
48207;SDS011;33997;53.278;9.708;2023-06-22T13:01:37;5.75;;;3.70;;
48207;SDS011;33997;53.278;9.708;2023-06-22T13:04:03;5.75;;;3.80;;
48207;SDS011;33997;53.278;9.708;2023-06-22T13:06:28;7.05;;;4.32;;
48207;SDS011;33997;53.278;9.708;2023-06-22T13:08:54;6.10;;;3.75;;
48207;SDS011;33997;53.278;9.708;2023-06-22T13:11:19;5.50;;;3.60;;
48207;SDS011;33997;53.278;9.708;2023-06-22T13:13:45;6.53;;;4.07;;
48207;SDS011;33997;53.278;9.708;2023-06-22T13:16:11;6.57;;;3.90;;
48207;SDS011;33997;53.278;9.708;2023-06-22T13:18:37;5.22;;;3.63;;
48207;SDS011;33997;53.278;9.708;2023-06-22T13:21:03;4.75;;;3.28;;
48207;SDS011;33997;53.278;9.708;2023-06-22T13:23:29;7.47;;;4.35;;
48207;SDS011;33997;53.278;9.708;2023-06-22T13:25:54;7.75;;;3.83;;
48207;SDS011;33997;53.278;9.708;2023-06-22T13:28:20;5.35;;;3.92;;
48207;SDS011;33997;53.278;9.708;2023-06-22T13:30:46;5.35;;;3.97;;
48207;SDS011;33997;53.278;9.708;2023-06-22T13:33:12;6.40;;;3.88;;
48207;SDS011;33997;53.278;9.708;2023-06-22T13:35:38;7.35;;;4.05;;
48207;SDS011;33997;53.278;9.708;2023-06-22T13:38:04;5.53;;;4.30;;
48207;SDS011;33997;53.278;9.708;2023-06-22T13:40:29;5.50;;;3.80;;
48207;SDS011;33997;53.278;9.708;2023-06-22T13:42:55;7.28;;;4.55;;
48207;SDS011;33997;53.278;9.708;2023-06-22T13:45:21;7.97;;;4.60;;
48207;SDS011;33997;53.278;9.708;2023-06-22T13:47:47;6.38;;;4.50;;
48207;SDS011;33997;53.278;9.708;2023-06-22T13:50:12;7.88;;;4.60;;
48207;SDS011;33997;53.278;9.708;2023-06-22T13:52:38;6.45;;;4.22;;
48207;SDS011;33997;53.278;9.708;2023-06-22T13:55:04;6.97;;;3.97;;
48207;SDS011;33997;53.278;9.708;2023-06-22T13:57:31;7.53;;;4.28;;
48207;SDS011;33997;53.278;9.708;2023-06-22T13:59:57;5.97;;;4.20;;
48207;SDS011;33997;53.278;9.708;2023-06-22T14:02:23;7.50;;;3.95;;
48207;SDS011;33997;53.278;9.708;2023-06-22T14:04:48;7.38;;;4.25;;
48207;SDS011;33997;53.278;9.708;2023-06-22T14:07:14;7.47;;;4.00;;
48207;SDS011;33997;53.278;9.708;2023-06-22T14:09:39;6.68;;;3.67;;
48207;SDS011;33997;53.278;9.708;2023-06-22T14:12:08;6.13;;;4.18;;
48207;SDS011;33997;53.278;9.708;2023-06-22T14:14:34;5.53;;;4.43;;
48207;SDS011;33997;53.278;9.708;2023-06-22T14:17:00;8.10;;;3.80;;
48207;SDS011;33997;53.278;9.708;2023-06-22T14:19:25;5.18;;;3.60;;
48207;SDS011;33997;53.278;9.708;2023-06-22T14:21:51;5.53;;;3.60;;
48207;SDS011;33997;53.278;9.708;2023-06-22T14:24:17;6.22;;;3.85;;
48207;SDS011;33997;53.278;9.708;2023-06-22T14:26:42;8.02;;;3.90;;
48207;SDS011;33997;53.278;9.708;2023-06-22T14:29:08;6.50;;;4.07;;
48207;SDS011;33997;53.278;9.708;2023-06-22T14:31:33;6.45;;;3.85;;
48207;SDS011;33997;53.278;9.708;2023-06-22T14:33:59;7.47;;;4.05;;
48207;SDS011;33997;53.278;9.708;2023-06-22T14:36:25;6.47;;;3.88;;
48207;SDS011;33997;53.278;9.708;2023-06-22T14:38:51;8.30;;;3.78;;
48207;SDS011;33997;53.278;9.708;2023-06-22T14:41:16;5.75;;;3.30;;